Time;durP1;ratioP1;P1;durP2;ratioP2;P2;SDS_P1;SDS_P2;PMS_P1;PMS_P2;Temp;Humidity;BMP_temperature;BMP_pressure;BME280_temperature;BME280_humidity;BME280_pressure;Samples;Min_cycle;Max_cycle;Signal;HPM_P1;HPM_P2
2021/07/25 00:00:43;;;;;;;12.90;7.55;;;19.30;99.90;;;;;;5010048;28;20044;-85
2021/07/25 00:03:09;;;;;;;11.85;8.00;;;19.30;99.90;;;;;;5033967;28;20029;-87
2021/07/25 00:05:35;;;;;;;11.05;7.55;;;19.30;99.90;;;;;;5023576;28;20687;-88
2021/07/25 00:08:01;;;;;;;9.90;7.47;;;19.30;99.90;;;;;;5008569;28;20504;-89
2021/07/25 00:10:27;;;;;;;9.90;6.63;;;19.20;99.90;;;;;;4993384;28;20400;-89
2021/07/25 00:12:53;;;;;;;12.40;7.43;;;19.20;99.90;;;;;;5007808;28;20042;-88
2021/07/25 00:15:19;;;;;;;14.48;8.15;;;19.20;99.90;;;;;;5007127;28;20034;-88
2021/07/25 00:17:45;;;;;;;12.45;7.70;;;19.20;99.90;;;;;;5005983;28;20125;-87
2021/07/25 00:20:11;;;;;;;12.68;7.88;;;19.10;99.90;;;;;;5007230;28;20401;-88
2021/07/25 00:22:37;;;;;;;10.68;7.28;;;19.10;99.90;;;;;;5027071;28;20038;-85
2021/07/25 00:25:09;;;;;;;10.25;7.00;;;19.00;99.90;;;;;;5008809;28;20037;-86
2021/07/25 00:27:39;;;;;;;9.23;6.97;;;18.90;99.90;;;;;;5006418;28;20727;-87
2021/07/25 00:30:09;;;;;;;11.48;7.47;;;18.90;99.90;;;;;;5007291;28;20092;-87
2021/07/25 00:32:35;;;;;;;10.52;7.07;;;18.80;99.90;;;;;;5011288;28;20030;-90
2021/07/25 00:35:01;;;;;;;10.85;6.82;;;18.80;99.90;;;;;;5021080;28;20038;-87
2021/07/25 00:37:26;;;;;;;10.73;7.57;;;18.80;99.90;;;;;;5012491;28;20658;-87
2021/07/25 00:39:52;;;;;;;10.90;6.88;;;18.80;99.90;;;;;;5012953;28;20503;-87
2021/07/25 00:42:18;;;;;;;10.50;7.25;;;18.80;99.90;;;;;;5012744;28;20133;-87
2021/07/25 00:44:44;;;;;;;10.70;6.80;;;18.70;99.90;;;;;;5012473;28;20046;-87
2021/07/25 00:47:10;;;;;;;11.80;6.70;;;18.70;99.90;;;;;;5013230;28;20394;-88
2021/07/25 00:49:37;;;;;;;9.55;6.80;;;18.50;99.90;;;;;;5013286;28;20029;-86
2021/07/25 00:52:06;;;;;;;10.88;6.90;;;18.50;99.90;;;;;;5012985;28;20029;-87
2021/07/25 00:54:31;;;;;;;9.77;6.72;;;18.40;99.90;;;;;;5013856;28;20100;-87
2021/07/25 00:56:57;;;;;;;8.95;6.65;;;18.40;99.90;;;;;;5002068;28;20033;-87
2021/07/25 00:59:23;;;;;;;10.00;6.65;;;18.40;99.90;;;;;;5007752;28;20111;-87
2021/07/25 01:01:49;;;;;;;11.35;7.05;;;18.40;99.90;;;;;;5009227;28;20144;-87
2021/07/25 01:04:41;;;;;;;10.23;6.50;;;18.40;99.90;;;;;;5011557;28;20492;-87
2021/07/25 01:07:10;;;;;;;11.00;6.97;;;18.30;99.90;;;;;;4990905;28;20048;-87
2021/07/25 01:09:58;;;;;;;10.57;6.88;;;18.30;99.90;;;;;;4995479;28;20034;-88
2021/07/25 01:12:31;;;;;;;9.68;6.82;;;18.20;99.90;;;;;;5012061;28;20492;-88
2021/07/25 01:14:59;;;;;;;10.35;6.50;;;18.20;99.90;;;;;;5011712;28;20124;-87
2021/07/25 01:17:26;;;;;;;10.55;6.63;;;18.20;99.90;;;;;;5012017;28;20034;-88
2021/07/25 01:19:53;;;;;;;11.80;7.32;;;18.10;99.90;;;;;;4996280;28;20038;-88
2021/07/25 01:22:19;;;;;;;11.18;6.72;;;18.10;99.90;;;;;;5012442;28;20036;-87
2021/07/25 01:24:46;;;;;;;10.50;6.57;;;18.00;99.90;;;;;;4996319;28;20060;-87
2021/07/25 01:27:23;;;;;;;9.65;6.50;;;18.00;99.90;;;;;;5012266;28;20040;-85
2021/07/25 01:29:51;;;;;;;11.85;6.25;;;17.90;99.90;;;;;;5021951;28;20034;-87
2021/07/25 01:32:17;;;;;;;9.73;6.38;;;17.80;99.90;;;;;;4999091;28;20029;-88
2021/07/25 01:34:44;;;;;;;10.27;6.25;;;17.80;99.90;;;;;;5011923;28;20121;-88
2021/07/25 01:37:12;;;;;;;9.57;6.68;;;17.80;99.90;;;;;;5012038;28;20496;-87
2021/07/25 01:39:38;;;;;;;10.65;5.97;;;17.90;99.90;;;;;;5011995;28;20474;-87
2021/07/25 01:42:04;;;;;;;8.35;5.70;;;17.80;99.90;;;;;;5011545;28;20084;-87
2021/07/25 01:44:30;;;;;;;10.60;6.15;;;17.80;99.90;;;;;;5011578;28;20041;-89
2021/07/25 01:46:56;;;;;;;10.63;6.05;;;17.80;99.90;;;;;;5011257;28;20154;-87
2021/07/25 01:49:22;;;;;;;7.70;5.78;;;17.80;99.90;;;;;;5011267;28;20512;-87
2021/07/25 01:51:48;;;;;;;9.10;6.13;;;17.80;99.90;;;;;;5011048;28;20084;-87
2021/07/25 01:54:14;;;;;;;9.73;5.15;;;17.80;99.90;;;;;;5011081;28;20528;-87
2021/07/25 01:56:40;;;;;;;8.23;5.38;;;17.70;99.90;;;;;;5011669;28;20034;-88
2021/07/25 01:59:06;;;;;;;8.65;5.60;;;17.60;99.90;;;;;;5011773;28;20033;-88
2021/07/25 02:01:32;;;;;;;9.70;5.68;;;17.60;99.90;;;;;;5011116;28;20431;-88
2021/07/25 02:03:58;;;;;;;11.18;5.85;;;17.50;99.90;;;;;;5013757;28;20044;-87
2021/07/25 02:06:23;;;;;;;7.65;4.82;;;17.40;99.90;;;;;;5016480;28;20034;-86
2021/07/25 02:08:51;;;;;;;7.13;5.60;;;17.30;99.90;;;;;;5016755;28;20037;-86
2021/07/25 02:11:19;;;;;;;10.63;5.47;;;17.20;99.90;;;;;;5014624;28;20034;-87
2021/07/25 02:13:45;;;;;;;8.48;4.97;;;17.20;99.90;;;;;;5018428;28;20073;-87
2021/07/25 02:16:10;;;;;;;6.85;4.97;;;17.20;99.90;;;;;;5017453;28;20072;-87
2021/07/25 02:18:36;;;;;;;8.25;5.28;;;17.20;99.90;;;;;;5016717;28;20113;-87
2021/07/25 02:21:02;;;;;;;7.93;5.32;;;17.20;99.90;;;;;;5017040;28;20057;-88
2021/07/25 02:23:28;;;;;;;8.25;5.68;;;17.10;99.90;;;;;;5017314;28;20026;-87
2021/07/25 02:25:54;;;;;;;8.50;5.22;;;17.20;99.90;;;;;;5019224;28;20052;-85
2021/07/25 02:28:19;;;;;;;9.35;5.75;;;17.20;99.90;;;;;;5024557;28;20029;-87
2021/07/25 02:30:45;;;;;;;9.32;4.97;;;17.00;99.90;;;;;;5038123;28;20051;-87
2021/07/25 02:33:11;;;;;;;8.10;5.05;;;16.90;99.90;;;;;;5056908;28;20035;-87
2021/07/25 02:35:37;;;;;;;6.10;4.78;;;16.90;99.90;;;;;;5024593;28;20036;-88
2021/07/25 02:38:03;;;;;;;7.45;5.03;;;16.80;99.90;;;;;;5019798;28;20037;-87
2021/07/25 02:40:29;;;;;;;11.70;5.28;;;16.90;99.90;;;;;;5038094;28;20044;-87
2021/07/25 02:42:55;;;;;;;8.57;4.80;;;16.90;99.90;;;;;;5018307;28;20045;-85
2021/07/25 02:45:20;;;;;;;7.80;5.25;;;16.90;99.90;;;;;;5005153;28;20037;-85
2021/07/25 02:47:46;;;;;;;8.38;5.30;;;16.90;99.90;;;;;;5018275;28;20091;-87
2021/07/25 02:50:12;;;;;;;10.88;6.07;;;16.90;99.90;;;;;;5023631;28;20041;-87
2021/07/25 02:52:38;;;;;;;9.88;4.90;;;16.90;99.90;;;;;;5038069;28;20079;-87
2021/07/25 02:55:04;;;;;;;8.63;5.13;;;16.90;99.90;;;;;;5020700;28;20037;-87
2021/07/25 02:57:30;;;;;;;7.45;5.25;;;16.90;99.90;;;;;;5020782;28;20037;-88
2021/07/25 02:59:56;;;;;;;7.55;4.78;;;16.90;99.90;;;;;;5017641;28;20041;-87
2021/07/25 03:02:22;;;;;;;8.07;5.30;;;16.80;99.90;;;;;;5026472;28;20037;-87
2021/07/25 03:04:48;;;;;;;7.20;5.13;;;16.90;99.90;;;;;;5018045;28;20072;-87
2021/07/25 03:07:14;;;;;;;8.52;4.70;;;16.80;99.90;;;;;;5018810;28;20038;-86
2021/07/25 03:09:40;;;;;;;10.30;5.32;;;16.80;99.90;;;;;;5031703;28;20081;-87
2021/07/25 03:12:06;;;;;;;7.30;5.18;;;16.80;99.90;;;;;;5017816;28;20034;-87
2021/07/25 03:14:32;;;;;;;6.72;5.10;;;16.80;99.90;;;;;;5018064;28;20055;-86
2021/07/25 03:16:58;;;;;;;6.78;4.70;;;16.70;99.90;;;;;;5015481;28;20041;-87
2021/07/25 03:19:23;;;;;;;7.00;5.70;;;16.70;99.90;;;;;;5015076;28;20443;-86
2021/07/25 03:21:49;;;;;;;8.90;5.57;;;16.60;99.90;;;;;;5013338;28;20068;-87
2021/07/25 03:24:15;;;;;;;9.20;5.22;;;16.50;99.90;;;;;;5031141;28;20060;-87
2021/07/25 03:26:41;;;;;;;7.45;5.30;;;16.50;99.90;;;;;;5022486;28;20029;-87
2021/07/25 03:29:06;;;;;;;7.85;5.03;;;16.40;99.90;;;;;;5011318;28;20500;-87
2021/07/25 03:31:32;;;;;;;7.57;5.45;;;16.40;99.90;;;;;;5011436;28;20041;-86
2021/07/25 03:34:01;;;;;;;6.88;4.82;;;16.40;99.90;;;;;;5019203;28;20041;-86
2021/07/25 03:36:27;;;;;;;7.10;5.10;;;16.30;99.90;;;;;;5031185;28;20372;-87
2021/07/25 03:38:53;;;;;;;8.38;5.32;;;16.30;99.90;;;;;;5017407;28;20064;-86
2021/07/25 03:41:19;;;;;;;6.65;4.97;;;16.20;99.90;;;;;;5015088;28;20042;-87
2021/07/25 03:43:45;;;;;;;8.18;4.80;;;16.20;99.90;;;;;;5016345;28;20033;-87
2021/07/25 03:46:11;;;;;;;7.18;5.10;;;16.20;99.90;;;;;;5017152;28;20034;-87
2021/07/25 03:48:36;;;;;;;8.20;5.10;;;16.30;99.90;;;;;;5016564;28;20116;-86
2021/07/25 03:51:02;;;;;;;8.00;4.65;;;16.30;99.90;;;;;;5000255;28;20033;-88
2021/07/25 03:53:38;;;;;;;8.20;5.13;;;16.40;99.90;;;;;;5017282;28;20048;-87
2021/07/25 03:56:05;;;;;;;7.85;4.95;;;16.40;99.90;;;;;;5030342;28;20038;-86
2021/07/25 03:58:30;;;;;;;7.43;5.35;;;16.50;99.90;;;;;;5022584;28;20098;-85
2021/07/25 04:00:56;;;;;;;7.97;5.10;;;16.50;99.90;;;;;;5029133;28;20050;-87
2021/07/25 04:03:22;;;;;;;9.70;4.82;;;16.60;99.90;;;;;;5002744;28;20594;-87
2021/07/25 04:05:48;;;;;;;6.97;5.07;;;16.60;99.90;;;;;;5011769;28;20067;-87
2021/07/25 04:08:15;;;;;;;8.85;6.07;;;16.60;99.90;;;;;;4988279;28;20033;-87
2021/07/25 04:10:43;;;;;;;12.15;5.53;;;16.70;99.90;;;;;;5016113;28;20040;-88
2021/07/25 04:13:13;;;;;;;8.10;5.55;;;16.70;99.90;;;;;;5016054;28;20045;-87
2021/07/25 04:15:45;;;;;;;10.18;5.60;;;16.70;99.90;;;;;;5012288;28;20033;-87
2021/07/25 04:18:11;;;;;;;6.25;4.72;;;16.80;99.90;;;;;;4996708;28;20044;-86
2021/07/25 04:20:37;;;;;;;7.88;5.10;;;16.80;99.90;;;;;;4996460;28;20380;-87
2021/07/25 04:23:03;;;;;;;9.95;5.25;;;17.00;99.90;;;;;;5023259;28;20025;-87
2021/07/25 04:25:30;;;;;;;9.80;6.30;;;17.10;99.90;;;;;;5013215;28;20030;-85
2021/07/25 04:27:58;;;;;;;10.07;5.50;;;17.20;99.90;;;;;;5016130;28;20029;-87
2021/07/25 04:30:25;;;;;;;7.50;5.72;;;17.20;99.90;;;;;;5013963;28;20033;-88
2021/07/25 04:32:51;;;;;;;9.60;5.20;;;17.30;99.90;;;;;;5015625;28;20096;-87
2021/07/25 04:35:18;;;;;;;8.25;5.35;;;17.30;99.90;;;;;;5015445;28;20042;-87
2021/07/25 04:37:54;;;;;;;8.95;6.38;;;17.40;99.90;;;;;;5014963;28;20057;-87
2021/07/25 04:40:22;;;;;;;10.80;6.70;;;17.50;99.90;;;;;;5013055;28;20484;-88
2021/07/25 04:42:53;;;;;;;10.07;6.30;;;17.50;99.90;;;;;;5012878;28;20033;-88
2021/07/25 04:45:42;;;;;;;8.52;6.05;;;17.50;99.90;;;;;;5012896;28;20072;-87
2021/07/25 04:48:08;;;;;;;8.60;5.05;;;17.60;99.90;;;;;;5012324;28;20030;-88
2021/07/25 04:50:38;;;;;;;7.25;5.00;;;17.80;99.90;;;;;;4995896;28;20072;-87
2021/07/25 04:53:06;;;;;;;10.18;6.38;;;17.90;99.90;;;;;;5011663;28;20489;-87
2021/07/25 04:55:34;;;;;;;9.55;5.80;;;17.90;99.90;;;;;;5012036;28;20057;-88
2021/07/25 04:58:07;;;;;;;11.07;7.22;;;18.00;99.90;;;;;;5011755;28;20042;-86
2021/07/25 05:00:39;;;;;;;8.38;6.40;;;17.90;99.90;;;;;;5014783;28;20045;-87
2021/07/25 05:03:06;;;;;;;11.27;6.97;;;18.00;99.90;;;;;;5012913;28;20472;-86
2021/07/25 05:05:32;;;;;;;10.27;7.13;;;18.10;99.90;;;;;;4994564;28;20508;-87
2021/07/25 05:08:02;;;;;;;12.43;8.00;;;18.30;99.90;;;;;;5010692;28;20030;-87
2021/07/25 05:10:29;;;;;;;11.63;7.55;;;18.30;99.90;;;;;;5009681;28;20026;-87
2021/07/25 05:12:59;;;;;;;13.80;7.32;;;18.30;99.90;;;;;;5010991;28;20037;-87
2021/07/25 05:15:40;;;;;;;11.00;7.75;;;18.30;99.90;;;;;;5010858;28;20064;-86
2021/07/25 05:18:07;;;;;;;13.18;7.60;;;18.40;99.90;;;;;;5023106;28;20034;-87
2021/07/25 05:20:47;;;;;;;10.63;6.88;;;18.40;99.90;;;;;;5031545;28;20034;-88
2021/07/25 05:23:23;;;;;;;12.70;7.07;;;18.50;99.90;;;;;;5015355;28;20567;-87
2021/07/25 05:25:52;;;;;;;11.60;6.85;;;18.50;99.90;;;;;;5015334;28;20037;-88
2021/07/25 05:28:19;;;;;;;8.07;6.55;;;18.60;99.90;;;;;;5028113;28;20408;-87
2021/07/25 05:30:51;;;;;;;10.10;6.70;;;18.70;99.90;;;;;;5011446;28;20042;-89
2021/07/25 05:33:18;;;;;;;8.60;5.88;;;18.70;99.90;;;;;;5011051;28;20045;-86
2021/07/25 05:35:44;;;;;;;7.93;5.05;;;18.80;99.90;;;;;;5002421;28;20047;-87
2021/07/25 05:38:10;;;;;;;7.82;4.72;;;18.90;99.90;;;;;;5018381;28;20026;-87
2021/07/25 05:40:36;;;;;;;8.38;5.20;;;18.90;99.90;;;;;;5013549;28;20034;-87
2021/07/25 05:43:02;;;;;;;11.63;7.47;;;19.00;99.90;;;;;;5014846;28;20125;-85
2021/07/25 05:45:27;;;;;;;10.20;6.50;;;19.00;99.90;;;;;;5030343;28;20034;-86
2021/07/25 05:47:53;;;;;;;9.80;5.88;;;19.00;99.90;;;;;;5014797;28;20034;-86
2021/07/25 05:50:19;;;;;;;9.00;5.78;;;19.00;99.90;;;;;;4990699;28;20090;-88
2021/07/25 05:52:56;;;;;;;8.48;5.60;;;19.10;99.90;;;;;;5018572;28;20119;-87
2021/07/25 05:55:24;;;;;;;9.40;5.60;;;19.20;99.90;;;;;;5013426;28;20083;-87
2021/07/25 05:57:50;;;;;;;12.25;7.95;;;19.20;99.90;;;;;;4997019;28;20041;-87
2021/07/25 06:00:16;;;;;;;9.27;6.32;;;19.30;99.90;;;;;;5013447;28;20046;-88
2021/07/25 06:02:59;;;;;;;8.00;6.05;;;19.30;99.90;;;;;;4997980;28;20037;-87
2021/07/25 06:05:27;;;;;;;10.80;6.13;;;19.30;99.90;;;;;;4997922;28;20087;-87
2021/07/25 06:07:54;;;;;;;8.27;6.40;;;19.40;99.90;;;;;;5030661;28;20031;-88
2021/07/25 06:10:22;;;;;;;8.75;5.70;;;19.50;99.90;;;;;;5030801;28;20056;-87
2021/07/25 06:12:48;;;;;;;8.15;6.13;;;19.50;99.90;;;;;;4998133;28;20403;-87
2021/07/25 06:15:14;;;;;;;7.03;5.65;;;19.60;99.90;;;;;;5009126;28;20021;-87
2021/07/25 06:17:40;;;;;;;12.73;7.78;;;19.70;99.90;;;;;;5005462;28;20104;-88
2021/07/25 06:20:06;;;;;;;13.85;8.73;;;19.80;99.90;;;;;;5013213;28;20117;-88
2021/07/25 06:22:43;;;;;;;14.25;8.80;;;19.60;99.90;;;;;;5013504;28;20037;-88
2021/07/25 06:25:11;;;;;;;13.43;8.32;;;19.40;99.90;;;;;;5021029;28;20038;-87
2021/07/25 06:27:38;;;;;;;13.70;7.78;;;19.40;99.90;;;;;;5017832;28;20038;-86
2021/07/25 06:30:05;;;;;;;11.23;7.15;;;19.50;99.90;;;;;;5013213;28;20435;-87
2021/07/25 06:32:31;;;;;;;9.95;7.28;;;19.60;99.90;;;;;;4997669;28;20416;-85
2021/07/25 06:34:56;;;;;;;11.13;6.97;;;19.70;99.90;;;;;;5038640;28;20044;-88
2021/07/25 06:37:22;;;;;;;9.85;7.03;;;19.80;99.90;;;;;;5010635;28;20025;-87
2021/07/25 06:39:48;;;;;;;10.40;6.72;;;19.80;99.90;;;;;;5010646;28;20045;-87
2021/07/25 06:42:14;;;;;;;10.38;7.00;;;19.90;99.90;;;;;;5014114;28;20025;-88
2021/07/25 06:44:39;;;;;;;11.20;6.78;;;19.90;99.90;;;;;;4996278;28;20073;-86
2021/07/25 06:47:05;;;;;;;9.35;6.47;;;20.00;99.90;;;;;;5026673;28;20526;-87
2021/07/25 06:49:31;;;;;;;10.75;7.00;;;20.00;99.90;;;;;;4998056;28;20079;-88
2021/07/25 06:51:57;;;;;;;11.18;6.65;;;20.00;99.90;;;;;;5016389;28;20546;-87
2021/07/25 06:54:23;;;;;;;9.25;6.97;;;19.90;99.90;;;;;;5001338;28;20065;-87
2021/07/25 06:56:48;;;;;;;9.80;6.78;;;20.00;99.90;;;;;;5014389;28;20571;-88
2021/07/25 06:59:14;;;;;;;11.40;6.45;;;20.20;99.90;;;;;;5013619;28;20379;-88
2021/07/25 07:01:40;;;;;;;10.07;6.47;;;20.30;99.90;;;;;;5013689;28;20061;-85
2021/07/25 07:04:05;;;;;;;8.52;6.20;;;20.30;99.90;;;;;;5029006;28;20102;-88
2021/07/25 07:06:31;;;;;;;8.68;6.00;;;20.50;99.90;;;;;;5000773;28;20033;-88
2021/07/25 07:08:57;;;;;;;7.25;5.70;;;20.50;99.90;;;;;;5017043;28;20029;-87
2021/07/25 07:11:27;;;;;;;9.32;5.70;;;20.60;99.90;;;;;;5001014;28;20502;-87
2021/07/25 07:13:54;;;;;;;8.20;5.10;;;20.70;99.90;;;;;;5032214;28;20117;-87
2021/07/25 07:16:20;;;;;;;6.50;5.13;;;20.90;99.90;;;;;;5014356;28;20033;-88
2021/07/25 07:18:46;;;;;;;8.30;5.40;;;21.10;99.90;;;;;;5026376;28;20071;-87
2021/07/25 07:21:12;;;;;;;8.63;5.05;;;21.50;99.90;;;;;;5008594;28;20439;-88
2021/07/25 07:23:38;;;;;;;8.40;5.35;;;22.00;99.90;;;;;;5016034;28;20033;-87
2021/07/25 07:26:04;;;;;;;9.80;5.53;;;22.20;99.90;;;;;;5012186;28;20033;-86
2021/07/25 07:28:29;;;;;;;7.07;5.13;;;22.30;99.90;;;;;;5017940;28;20112;-87
2021/07/25 07:30:56;;;;;;;6.53;4.85;;;22.30;99.90;;;;;;5035720;28;20068;-87
2021/07/25 07:33:22;;;;;;;6.50;4.63;;;22.30;99.90;;;;;;5012493;28;20053;-88
2021/07/25 07:35:50;;;;;;;5.95;4.45;;;22.40;99.90;;;;;;4993552;28;20504;-88
2021/07/25 07:38:16;;;;;;;7.35;4.63;;;22.60;99.90;;;;;;5032344;28;20029;-87
2021/07/25 07:40:44;;;;;;;6.97;4.55;;;22.80;99.90;;;;;;4998081;28;20038;-88
2021/07/25 07:43:11;;;;;;;7.35;4.70;;;23.00;99.90;;;;;;5012793;28;20433;-87
2021/07/25 07:45:39;;;;;;;6.78;4.25;;;23.20;99.90;;;;;;5012556;28;20033;-87
2021/07/25 07:48:05;;;;;;;4.13;3.58;;;23.30;99.90;;;;;;5020481;28;20060;-86
2021/07/25 07:50:31;;;;;;;7.45;4.03;;;23.40;99.90;;;;;;5015841;28;20036;-87
2021/07/25 07:52:57;;;;;;;7.88;4.47;;;23.50;99.90;;;;;;4999293;28;20033;-87
2021/07/25 07:55:24;;;;;;;6.43;4.53;;;23.60;99.90;;;;;;5027642;28;20034;-87
2021/07/25 07:57:49;;;;;;;7.13;4.22;;;23.80;99.90;;;;;;5014295;28;20065;-87
2021/07/25 08:00:16;;;;;;;8.05;4.10;;;23.80;99.90;;;;;;5041099;28;20114;-86
2021/07/25 08:02:42;;;;;;;5.43;4.07;;;23.80;99.90;;;;;;5031274;28;20037;-87
2021/07/25 08:05:09;;;;;;;4.72;3.97;;;23.90;99.90;;;;;;5000484;28;20152;-88
2021/07/25 08:07:36;;;;;;;6.55;4.43;;;24.00;99.90;;;;;;5018769;28;20029;-88
2021/07/25 08:10:04;;;;;;;6.95;4.00;;;24.10;99.90;;;;;;5039882;28;20026;-88
2021/07/25 08:12:30;;;;;;;6.65;3.67;;;24.20;99.90;;;;;;5012420;28;20025;-88
2021/07/25 08:14:56;;;;;;;5.90;4.20;;;24.20;99.90;;;;;;5015813;28;20377;-88
2021/07/25 08:17:22;;;;;;;5.95;4.28;;;24.10;99.90;;;;;;5012474;28;20489;-88
2021/07/25 08:19:47;;;;;;;10.77;3.85;;;24.10;99.90;;;;;;5012413;28;20060;-88
2021/07/25 08:22:13;;;;;;;6.10;4.15;;;24.20;99.90;;;;;;5017326;28;20033;-87
2021/07/25 08:24:39;;;;;;;10.05;4.80;;;24.40;99.90;;;;;;5016009;28;20496;-88
2021/07/25 08:27:07;;;;;;;7.95;4.57;;;24.70;99.90;;;;;;5030794;28;20032;-86
2021/07/25 08:29:33;;;;;;;7.50;4.35;;;25.00;99.90;;;;;;5011951;28;20026;-87
2021/07/25 08:31:59;;;;;;;7.00;4.65;;;25.00;99.90;;;;;;5030578;28;20415;-86
2021/07/25 08:34:25;;;;;;;6.60;4.25;;;25.20;99.90;;;;;;5008794;28;20041;-87
2021/07/25 08:36:52;;;;;;;5.22;3.97;;;25.60;99.90;;;;;;5011335;28;20464;-87
2021/07/25 08:39:18;;;;;;;7.47;4.22;;;25.80;99.90;;;;;;5014137;28;20476;-88
2021/07/25 08:42:01;;;;;;;6.40;4.40;;;25.90;99.90;;;;;;5013579;28;20044;-88
2021/07/25 08:44:45;;;;;;;7.45;4.18;;;26.00;99.90;;;;;;5025544;28;20137;-87
2021/07/25 08:47:26;;;;;;;9.00;4.57;;;26.10;99.90;;;;;;5034640;28;20028;-88
2021/07/25 08:50:11;;;;;;;6.93;4.70;;;25.20;99.90;;;;;;5029261;28;20100;-87
2021/07/25 08:52:46;;;;;;;6.35;4.20;;;24.60;99.90;;;;;;5028122;28;20038;-89
2021/07/25 08:55:17;;;;;;;6.28;4.47;;;24.40;99.90;;;;;;5022545;28;20031;-88
2021/07/25 08:57:45;;;;;;;6.93;4.80;;;24.40;99.90;;;;;;5023271;28;20059;-88
2021/07/25 09:00:14;;;;;;;7.10;4.68;;;24.00;99.90;;;;;;4999078;28;20484;-88
2021/07/25 09:02:40;;;;;;;5.80;4.40;;;23.70;99.90;;;;;;5014602;28;20475;-88
2021/07/25 09:05:07;;;;;;;7.55;4.38;;;23.70;99.90;;;;;;5012318;28;20032;-89
2021/07/25 09:07:33;;;;;;;8.02;4.57;;;23.80;99.90;;;;;;5001941;28;20121;-89
2021/07/25 09:10:10;;;;;;;7.13;4.65;;;24.10;99.90;;;;;;5012190;28;20533;-88
2021/07/25 09:12:40;;;;;;;6.47;4.47;;;24.40;99.90;;;;;;5011744;28;20054;-88
2021/07/25 09:15:07;;;;;;;5.93;4.22;;;24.50;99.90;;;;;;5009488;28;20041;-89
2021/07/25 09:17:33;;;;;;;6.15;4.32;;;24.50;99.90;;;;;;5014710;28;20033;-88
2021/07/25 09:20:13;;;;;;;7.32;4.65;;;24.40;99.90;;;;;;5029058;28;20033;-88
2021/07/25 09:22:53;;;;;;;6.40;4.53;;;23.80;99.90;;;;;;5014850;28;20128;-89
2021/07/25 09:25:24;;;;;;;5.68;4.22;;;23.50;99.90;;;;;;5013583;28;20033;-88
2021/07/25 09:27:56;;;;;;;5.22;3.78;;;23.50;99.90;;;;;;5011290;28;20080;-89
2021/07/25 09:30:27;;;;;;;5.75;4.05;;;23.50;99.90;;;;;;5027391;28;20108;-88
2021/07/25 09:32:53;;;;;;;6.25;4.38;;;23.60;99.90;;;;;;5008637;28;20030;-88
2021/07/25 09:35:30;;;;;;;6.88;3.75;;;23.50;99.90;;;;;;5030445;28;20040;-88
2021/07/25 09:38:03;;;;;;;6.78;4.60;;;23.50;99.90;;;;;;5011129;28;20087;-88
2021/07/25 09:40:33;;;;;;;6.68;4.40;;;23.50;99.90;;;;;;5012340;28;20472;-88
2021/07/25 09:43:15;;;;;;;6.78;4.07;;;23.50;99.90;;;;;;4994065;28;20026;-88
2021/07/25 09:45:50;;;;;;;7.85;4.25;;;23.40;99.90;;;;;;5013274;28;20030;-88
2021/07/25 09:48:17;;;;;;;8.18;4.10;;;23.60;99.90;;;;;;5027665;28;20100;-88
2021/07/25 09:50:43;;;;;;;6.78;4.15;;;23.60;99.90;;;;;;5008443;28;20026;-87
2021/07/25 09:53:09;;;;;;;5.43;3.72;;;23.80;99.90;;;;;;5009591;28;20029;-88
2021/07/25 09:55:35;;;;;;;6.47;4.05;;;24.00;99.90;;;;;;5013339;28;20391;-86
2021/07/25 09:58:04;;;;;;;7.88;4.60;;;24.20;99.90;;;;;;5014540;28;20038;-88
2021/07/25 10:00:43;;;;;;;4.45;3.22;;;24.40;99.90;;;;;;5024080;28;20037;-89
2021/07/25 10:03:18;;;;;;;4.20;3.28;;;24.60;99.90;;;;;;5011894;28;20086;-88
2021/07/25 10:05:45;;;;;;;4.82;3.95;;;24.60;99.90;;;;;;5009769;28;20030;-88
2021/07/25 10:08:19;;;;;;;5.68;3.58;;;24.60;99.90;;;;;;5013177;28;20033;-88
2021/07/25 10:10:50;;;;;;;4.77;3.40;;;24.40;99.90;;;;;;4993546;28;20030;-85
2021/07/25 10:13:24;;;;;;;6.05;3.70;;;24.00;99.90;;;;;;5021775;28;20034;-88
2021/07/25 10:16:01;;;;;;;4.38;3.67;;;23.90;99.90;;;;;;4993723;28;20129;-88
2021/07/25 10:18:27;;;;;;;4.47;3.65;;;24.00;99.90;;;;;;5009965;28;20033;-87
2021/07/25 10:20:58;;;;;;;5.38;3.35;;;24.20;99.90;;;;;;5028121;28;20040;-87
2021/07/25 10:23:55;;;;;;;5.55;3.38;;;24.20;99.90;;;;;;5009138;28;20034;-88
2021/07/25 10:26:25;;;;;;;4.80;3.20;;;24.20;99.90;;;;;;5033120;28;20021;-88
2021/07/25 10:28:54;;;;;;;4.75;2.90;;;24.30;99.90;;;;;;5044659;28;20060;-87
2021/07/25 10:31:26;;;;;;;4.57;3.10;;;24.30;99.90;;;;;;5012748;28;20029;-88
2021/07/25 10:33:53;;;;;;;5.10;3.28;;;24.40;99.90;;;;;;5005756;28;20077;-88
2021/07/25 10:36:22;;;;;;;5.28;3.20;;;24.60;99.90;;;;;;5011663;28;20080;-89
2021/07/25 10:38:49;;;;;;;5.32;3.83;;;24.60;99.90;;;;;;5002157;28;20185;-89
2021/07/25 10:41:19;;;;;;;6.57;3.90;;;24.60;99.90;;;;;;5017187;28;20034;-88
2021/07/25 10:43:45;;;;;;;4.07;3.25;;;24.60;99.90;;;;;;5009767;28;20067;-90
2021/07/25 10:46:16;;;;;;;5.43;3.58;;;24.70;99.90;;;;;;5022469;28;20025;-90
2021/07/25 10:49:00;;;;;;;4.97;3.15;;;25.00;99.90;;;;;;5013502;28;20021;-88
2021/07/25 10:51:36;;;;;;;5.22;3.20;;;24.90;99.90;;;;;;5027375;28;20389;-89
2021/07/25 10:54:24;;;;;;;4.28;2.72;;;25.00;99.40;;;;;;5008384;28;20036;-88
2021/07/25 10:57:08;;;;;;;3.63;2.85;;;25.10;99.90;;;;;;5009873;28;20026;-89
2021/07/25 10:59:47;;;;;;;4.22;3.13;;;25.20;99.90;;;;;;5013272;28;20107;-88
2021/07/25 11:02:24;;;;;;;5.00;3.40;;;25.40;99.90;;;;;;5002801;28;20432;-87
2021/07/25 11:04:50;;;;;;;5.20;3.60;;;25.60;99.90;;;;;;5013277;28;20025;-87
2021/07/25 11:07:22;;;;;;;5.05;3.90;;;25.50;99.90;;;;;;5008290;28;20025;-87
2021/07/25 11:09:58;;;;;;;4.22;2.80;;;25.30;99.90;;;;;;5007238;28;20021;-87
2021/07/25 11:12:25;;;;;;;4.63;3.30;;;25.30;99.50;;;;;;5025451;28;20083;-88
2021/07/25 11:14:59;;;;;;;4.95;3.20;;;25.30;99.90;;;;;;5029436;28;20033;-87
2021/07/25 11:17:45;;;;;;;3.35;2.90;;;25.30;99.90;;;;;;5009671;28;20029;-88
2021/07/25 11:20:32;;;;;;;6.28;3.45;;;25.40;99.90;;;;;;5012644;28;20041;-87
2021/07/25 11:22:59;;;;;;;4.80;3.00;;;25.50;99.90;;;;;;5012997;28;20025;-87
2021/07/25 11:25:32;;;;;;;4.93;3.13;;;25.60;99.90;;;;;;5039407;28;20312;-88
2021/07/25 11:27:58;;;;;;;6.35;2.97;;;25.60;98.50;;;;;;5025293;28;20518;-87
2021/07/25 11:30:52;;;;;;;5.38;3.40;;;25.70;98.40;;;;;;5029261;28;20026;-87
2021/07/25 11:33:40;;;;;;;5.05;3.38;;;25.60;99.00;;;;;;5025220;28;20025;-88
2021/07/25 11:36:24;;;;;;;4.75;3.38;;;25.80;97.90;;;;;;5023143;28;20687;-87
2021/07/25 11:39:01;;;;;;;4.25;3.33;;;26.00;97.30;;;;;;5005492;28;20435;-88
2021/07/25 11:41:32;;;;;;;3.92;3.10;;;25.70;95.90;;;;;;4990288;28;20030;-87
2021/07/25 11:44:00;;;;;;;4.07;3.13;;;25.80;99.10;;;;;;5008760;28;20030;-88
2021/07/25 11:46:27;;;;;;;4.05;3.05;;;26.00;99.30;;;;;;4992985;28;20030;-89
2021/07/25 11:49:05;;;;;;;8.88;3.38;;;26.20;96.60;;;;;;5014407;28;20022;-86
2021/07/25 11:51:32;;;;;;;5.45;3.17;;;26.30;97.10;;;;;;5009979;28;20080;-86
2021/07/25 11:53:58;;;;;;;4.22;3.55;;;26.40;93.60;;;;;;4995097;28;20074;-87
2021/07/25 11:56:24;;;;;;;5.07;3.30;;;26.40;95.00;;;;;;5007523;28;20045;-89
2021/07/25 11:59:01;;;;;;;4.70;3.20;;;26.40;94.60;;;;;;5012508;28;20026;-91
2021/07/25 12:01:27;;;;;;;3.50;3.20;;;26.40;98.80;;;;;;4999073;28;20030;-87
2021/07/25 12:03:52;;;;;;;4.40;3.00;;;26.40;97.40;;;;;;5009456;28;20022;-87
2021/07/25 12:06:18;;;;;;;3.55;2.72;;;26.70;96.20;;;;;;5005318;28;20030;-87
2021/07/25 12:09:07;;;;;;;5.97;3.30;;;26.90;94.70;;;;;;5032980;28;20516;-87
2021/07/25 12:11:34;;;;;;;4.93;2.95;;;27.00;94.80;;;;;;5015239;28;20064;-89
2021/07/25 12:14:00;;;;;;;7.13;2.92;;;27.00;94.60;;;;;;5025281;28;20014;-90
2021/07/25 12:16:42;;;;;;;3.22;2.53;;;27.10;96.20;;;;;;5013471;28;20563;-88
2021/07/25 12:19:17;;;;;;;3.28;2.97;;;27.30;96.90;;;;;;5010670;28;20029;-90
2021/07/25 12:21:44;;;;;;;6.55;3.28;;;27.30;93.90;;;;;;5004161;28;20026;-89
2021/07/25 12:24:28;;;;;;;3.88;3.10;;;27.30;95.60;;;;;;5021538;28;20112;-89
2021/07/25 12:26:54;;;;;;;5.15;3.40;;;26.90;91.40;;;;;;4987381;28;20114;-90
2021/07/25 12:29:42;;;;;;;3.53;3.17;;;26.60;91.10;;;;;;5026927;28;20032;-87
2021/07/25 12:32:30;;;;;;;4.18;2.53;;;26.40;92.40;;;;;;5004998;28;20029;-89
2021/07/25 12:35:08;;;;;;;3.55;2.83;;;26.40;93.90;;;;;;5025893;28;20029;-92
2021/07/25 12:37:40;;;;;;;3.70;2.70;;;26.40;95.90;;;;;;5048219;28;20559;-91
2021/07/25 12:40:07;;;;;;;4.07;3.08;;;26.30;96.20;;;;;;5036967;28;20113;-88
2021/07/25 12:42:43;;;;;;;3.50;3.00;;;26.40;97.20;;;;;;5009914;28;20745;-87
2021/07/25 12:45:28;;;;;;;3.42;2.90;;;26.40;97.80;;;;;;5010514;28;20116;-87
2021/07/25 12:48:14;;;;;;;3.87;2.83;;;26.30;95.30;;;;;;5018918;28;20022;-89
2021/07/25 12:50:56;;;;;;;3.92;3.10;;;26.30;97.60;;;;;;5005233;28;20072;-87
2021/07/25 12:53:28;;;;;;;3.58;2.40;;;26.30;98.70;;;;;;5021107;28;20033;-87
2021/07/25 12:55:55;;;;;;;6.75;2.90;;;26.30;99.50;;;;;;5004186;28;20417;-86